Flight Track Log - Related Links

Times and Time Zones

All times are in EDT time to prevent confusion due to time zone crossing. See the N201SU flight status page for this flight to view local times or setup timezone preferences in your user account.

Time Position Orientation Groundspeed Altitude Reporting Facility
EDT Latitude Longitude Course Direction KTS MPH feet Rate Location/Type
Sun 05:57:30 PM 42.4167 -71.3833 216° Southwest 253 291 3,000  Level KA90
Sun 05:58:24 PM 42.3500 -71.3500 160° South 268 308 5,100 2,947 Climbing KA90
Sun 05:59:24 PM 42.3000 -71.2833 135° Southeast 272 313 8,600 3,347 Climbing KA90
Sun 06:00:51 PM 42.2889 -71.1406 96° East 307 353 13,300 2,204 Climbing Boston Center
Sun 06:01:51 PM 42.2600 -71.0094 107° East 317 365 14,000 700 Climbing Boston Center
Sun 06:02:51 PM 42.1967 -70.9436 142° Southeast 317 365 14,700 2,200 Climbing Boston Center
Sun 06:03:51 PM 42.1022 -70.8928 158° South 318 366 18,400 3,350 Climbing Boston Center
Sun 06:04:51 PM 42.0161 -70.8472 159° South 323 372 21,400 1,900 Climbing Boston Center
Sun 06:05:51 PM 41.9322 -70.8019 158° South 349 402 22,200 800 Climbing Boston Center
Sun 06:06:51 PM 41.8356 -70.7514 159° South 360 414 23,000 400 Climbing Boston Center
Sun 06:07:51 PM 41.7431 -70.6956 156° South 366 421 23,000 1,300 Level Boston Center
Sun 06:08:51 PM 41.6483 -70.6397 156° South 366 421 25,600 1,500 Climbing Boston Center
Sun 06:09:51 PM 41.5631 -70.6533 187° South 326 375 26,000 200 Climbing Boston Center
Sun 06:10:51 PM 41.5125 -70.7628 238° Southwest 270 311 26,000  Level Boston Center
Sun 06:11:51 PM 41.4744 -70.8581 242° Southwest 276 318 26,000  Level Boston Center
Sun 06:12:51 PM 41.4361 -70.9558 242° Southwest 287 330 26,000  Level Boston Center
Sun 06:13:51 PM 41.3936 -71.0539 240° Southwest 299 344 26,000  Level Boston Center
Sun 06:14:51 PM 41.3531 -71.1486 240° Southwest 299 344 26,000  Level Boston Center
Sun 06:15:51 PM 41.3125 -71.2433 240° Southwest 304 350 26,000  Level Boston Center
Sun 06:16:51 PM 41.2717 -71.3408 241° Southwest 304 350 26,000  Level Boston Center
Sun 06:17:51 PM 41.2308 -71.4383 241° Southwest 304 350 26,000  Level Boston Center
Sun 06:19:03 PM 41.1819 -71.5492 240° Southwest 304 350 26,000  Level Boston Center
Sun 06:20:03 PM 41.1386 -71.6269 234° Southwest 299 344 26,000  Level Boston Center
Sun 06:21:03 PM 41.0850 -71.7131 230° Southwest 299 344 26,000  Level Boston Center
Sun 06:22:03 PM 41.0336 -71.8044 233° Southwest 299 344 26,000  Level Boston Center
Sun 06:23:03 PM 40.9842 -71.9094 238° Southwest 304 350 26,000  Level Boston Center
Sun 06:24:03 PM 40.9281 -71.9897 227° Southwest 304 350 26,000  Level Boston Center
Sun 06:25:03 PM 40.8786 -72.0778 233° Southwest 304 350 26,000  Level Boston Center
Sun 06:26:03 PM 40.8244 -72.1658 231° Southwest 304 350 26,000  Level Boston Center
Sun 06:27:03 PM 40.7728 -72.2564 233° Southwest 309 356 26,000  Level Boston Center
Sun 06:28:03 PM 40.7164 -72.3417 229° Southwest 324 373 26,000  Level Boston Center
Sun 06:29:03 PM 40.6542 -72.4428 231° Southwest 345 397 26,000  Level Boston Center
Sun 06:30:03 PM 40.5997 -72.5467 235° Southwest 352 405 26,000 -758 Level Boston Center
Sun 06:32:05 PM 40.4764 -72.7519 232° Southwest 341 392 23,700 -1,160 Descending New York Center
Sun 06:33:04 PM 40.4186 -72.8511 233° Southwest 341 392 22,500 -1,300 Descending New York Center
Sun 06:34:05 PM 40.3606 -72.9500 232° Southwest 341 392 21,100 -1,210 Descending New York Center
Sun 06:35:03 PM 40.3025 -73.0436 231° Southwest 335 386 20,100 -550 Descending New York Center
Sun 06:36:05 PM 40.2464 -73.1367 232° Southwest 335 386 20,000 -49 Descending New York Center
Sun 06:37:05 PM 40.1781 -73.2186 223° Southwest 335 386 20,000  Level New York Center
Sun 06:38:06 PM 40.1075 -73.3003 222° Southwest 335 386 20,000  Level New York Center
Sun 06:39:04 PM 40.0389 -73.3819 222° Southwest 335 386 20,000  Level New York Center
Sun 06:40:04 PM 39.9769 -73.4553 222° Southwest 335 386 20,000  Level New York Center
Sun 06:41:04 PM 39.9061 -73.5392 222° Southwest 340 391 20,000  Level New York Center
Sun 06:42:03 PM 39.8456 -73.6314 229° Southwest 340 391 20,000  Level New York Center
Sun 06:43:05 PM 39.7892 -73.7236 232° Southwest 340 391 20,000  Level New York Center
Sun 06:43:40 PM 39.7458 -73.7914 230° Southwest 339 390 20,000 -63 Level Washington Center
Sun 06:44:40 PM 39.6947 -73.8711 230° Southwest 318 366 19,900 -1,100 Descending Washington Center
Sun 06:45:40 PM 39.6378 -73.9586 230° Southwest 313 360 17,800 -1,943 Descending Washington Center
Sun 06:46:25 PM 39.5942 -74.0278 231° Southwest 318 366 16,500 -1,969 Descending FAA TRACON SMA TRACON (SMA)
Sun 06:46:44 PM 39.5717 -74.0622 230° Southwest 321 369 15,700 -2,211 Descending FAA TRACON SMA TRACON (SMA)
Sun 06:47:03 PM 39.5536 -74.0903 230° Southwest 325 374 15,100 -1,846 Descending FAA TRACON SMA TRACON (SMA)
Sun 06:47:23 PM 39.5356 -74.1186 230° Southwest 327 376 14,500 -1,500 Descending FAA TRACON SMA TRACON (SMA)
Sun 06:47:43 PM 39.5258 -74.1514 249° West 320 368 14,100 -750 Descending FAA TRACON SMA TRACON (SMA)
Sun 06:48:03 PM 39.5228 -74.1939 265° West 310 357 14,000 -293 Descending FAA TRACON SMA TRACON (SMA)
Sun 06:48:24 PM 39.5242 -74.2275 273° West 306 352 13,900 -732 Descending FAA TRACON SMA TRACON (SMA)
Sun 06:48:44 PM 39.5256 -74.2664 273° West 317 365 13,500 -1,385 Descending FAA TRACON SMA TRACON (SMA)
Sun 06:49:03 PM 39.5286 -74.3039 276° West 316 364 13,000 -1,538 Descending FAA TRACON SMA TRACON (SMA)
Sun 06:49:23 PM 39.5272 -74.3403 267° West 311 358 12,500 -1,350 Descending FAA TRACON SMA TRACON (SMA)
Sun 06:49:43 PM 39.5281 -74.3733 272° West 305 351 12,100 -750 Descending FAA TRACON SMA TRACON (SMA)
Sun 06:50:03 PM 39.5289 -74.4125 272° West 299 344 12,000 -150 Descending FAA TRACON SMA TRACON (SMA)
Sun 06:50:23 PM 39.5283 -74.4411 269° West 294 338 12,000 -300 Level FAA TRACON SMA TRACON (SMA)
Sun 06:50:43 PM 39.5289 -74.4783 271° West 292 336 11,800 -900 Descending FAA TRACON SMA TRACON (SMA)
Sun 06:51:03 PM 39.5297 -74.5183 272° West 291 335 11,400 -1,050 Descending FAA TRACON SMA TRACON (SMA)
Sun 06:51:23 PM 39.5314 -74.5497 274° West 290 334 11,100 -439 Descending FAA TRACON SMA TRACON (SMA)
Sun 06:51:44 PM 39.5311 -74.5819 269° West 287 330 11,100 -150 Level FAA TRACON SMA TRACON (SMA)
Sun 06:52:03 PM 39.5322 -74.6186 272° West 286 329 11,000 -154 Descending FAA TRACON SMA TRACON (SMA)
Sun 06:52:23 PM 39.5314 -74.6489 268° West 284 327 11,000  Level FAA TRACON SMA TRACON (SMA)
Sun 06:52:43 PM 39.5325 -74.6833 272° West 281 323 11,000  Level FAA TRACON SMA TRACON (SMA)
Sun 06:53:03 PM 39.5333 -74.7214 272° West 278 320 11,000 -600 Level FAA TRACON SMA TRACON (SMA)
Sun 06:53:23 PM 39.5350 -74.7483 275° West 277 319 10,600 -1,200 Descending FAA TRACON SMA TRACON (SMA)
Sun 06:53:43 PM 39.5347 -74.7825 269° West 276 318 10,200 -900 Descending FAA TRACON SMA TRACON (SMA)
Sun 06:54:03 PM 39.5356 -74.8203 272° West 277 319 10,000 -300 Descending FAA TRACON SMA TRACON (SMA)
Sun 06:54:23 PM 39.5367 -74.8492 273° West 278 320 10,000  Level FAA TRACON SMA TRACON (SMA)
Sun 06:54:44 PM 39.5358 -74.8833 268° West 281 323 10,000  Level FAA TRACON SMA TRACON (SMA)
Sun 06:55:03 PM 39.5367 -74.9219 272° West 280 322 10,000  Level FAA TRACON SMA TRACON (SMA)
Sun 06:55:23 PM 39.5372 -74.9531 271° West 279 321 10,000  Level FAA TRACON SMA TRACON (SMA)
Sun 06:55:43 PM 39.5381 -74.9839 272° West 278 320 10,000  Level FAA TRACON SMA TRACON (SMA)
Sun 06:56:03 PM 39.5442 -75.0214 282° West 274 315 10,000  Level FAA TRACON SMA TRACON (SMA)
Sun 06:56:24 PM 39.5514 -75.0517 287° West 283 326 10,000  Level FAA TRACON SMA TRACON (SMA)
Sun 06:56:45 PM 39.5608 -75.0894 288° West 287 330 10,000  Level FAA TRACON SMA TRACON (SMA)
Sun 06:57:05 PM 39.5683 -75.1203 288° West 289 333 10,000  Level FAA TRACON SMA TRACON (SMA)
Sun 06:57:24 PM 39.5758 -75.1514 287° West 290 334 10,000  Level FAA TRACON SMA TRACON (SMA)
Sun 06:57:43 PM 39.5822 -75.1817 285° West 288 331 10,000  Level FAA TRACON SMA TRACON (SMA)
Sun 06:58:03 PM 39.5908 -75.2189 287° West 285 328 10,000  Level FAA TRACON SMA TRACON (SMA)
Sun 06:58:23 PM 39.5975 -75.2497 286° West 282 325 10,000 -150 Level FAA TRACON SMA TRACON (SMA)
Sun 06:58:43 PM 39.6050 -75.2831 286° West 280 322 9,900 -600 Descending FAA TRACON SMA TRACON (SMA)
Sun 06:59:03 PM 39.6122 -75.3147 287° West 279 321 9,600 -732 Descending FAA TRACON SMA TRACON (SMA)
Sun 06:59:24 PM 39.6194 -75.3458 287° West 277 319 9,400 -600 Descending FAA TRACON SMA TRACON (SMA)
Sun 06:59:43 PM 39.6261 -75.3756 286° West 279 321 9,200 -615 Descending FAA TRACON SMA TRACON (SMA)
Sun 07:00:03 PM 39.6344 -75.4125 286° West 278 320 9,000 -293 Descending FAA TRACON SMA TRACON (SMA)
Sun 07:00:24 PM 39.6411 -75.4417 287° West 277 319 9,000  Level FAA TRACON SMA TRACON (SMA)
Sun 07:00:43 PM 39.6481 -75.4722 286° West 282 325 9,000  Level FAA TRACON SMA TRACON (SMA)
Sun 07:01:03 PM 39.6564 -75.5100 286° West 282 325 9,000 -300 Level FAA TRACON SMA TRACON (SMA)
Sun 07:01:23 PM 39.6625 -75.5394 285° West 277 319 8,800 -750 Descending FAA TRACON SMA TRACON (SMA)
Sun 07:01:43 PM 39.6689 -75.5667 287° West 269 310 8,500 -1,171 Descending FAA TRACON SMA TRACON (SMA)
Sun 07:02:04 PM 39.6778 -75.6044 287° West 275 316 8,000 -1,171 Descending FAA TRACON SMA TRACON (SMA)
Sun 07:02:24 PM 39.6867 -75.6333 292° West 286 329 7,700 -900 Descending FAA TRACON SMA TRACON (SMA)
Sun 07:02:44 PM 39.7053 -75.6531 321° Northwest 280 322 7,400 -1,050 Descending FAA TRACON SMA TRACON (SMA)
Sun 07:03:04 PM 39.7289 -75.6750 324° Northwest 267 307 7,000 -600 Descending FAA TRACON SMA TRACON (SMA)
Sun 07:03:24 PM 39.7475 -75.6925 324° Northwest 270 311 7,000  Level FAA TRACON SMA TRACON (SMA)
Sun 07:03:44 PM 39.7667 -75.7106 324° Northwest 272 313 7,000  Level FAA TRACON SMA TRACON (SMA)
Sun 07:04:04 PM 39.7911 -75.7319 326° Northwest 273 314 7,000  Level FAA TRACON SMA TRACON (SMA)
Sun 07:04:23 PM 39.8103 -75.7456 331° Northwest 276 318 7,000  Level FAA TRACON SMA TRACON (SMA)
Sun 07:04:43 PM 39.8319 -75.7614 331° Northwest 274 315 7,000  Level FAA TRACON SMA TRACON (SMA)
Sun 07:05:03 PM 39.8489 -75.7808 319° Northwest 270 311 7,000 -750 Level FAA TRACON SMA TRACON (SMA)
Sun 07:05:23 PM 39.8669 -75.8086 310° West 261 300 6,500 -1,350 Descending FAA TRACON SMA TRACON (SMA)
Sun 07:05:43 PM 39.8822 -75.8292 314° West 248 285 6,100 -1,500 Descending FAA TRACON SMA TRACON (SMA)
Sun 07:06:03 PM 39.8958 -75.8481 313° West 227 261 5,500 -1,800 Descending FAA TRACON SMA TRACON (SMA)

Login

Don't have an account? Register now (free) for customized features, flight alerts, and more!